createdAt,value
2018-10-09T00:01:46.993Z,23.60
2018-10-09T00:04:24.696Z,17.40
2018-10-09T00:06:58.305Z,14.30
2018-10-09T00:09:31.666Z,12.43
2018-10-09T00:12:04.298Z,10.20
2018-10-09T00:14:36.949Z,12.27
2018-10-09T00:17:09.721Z,11.70
2018-10-09T00:19:42.629Z,10.53
2018-10-09T00:22:16.286Z,8.80
2018-10-09T00:24:49.203Z,8.50
2018-10-09T00:27:22.202Z,8.13
2018-10-09T00:29:54.560Z,8.17
2018-10-09T00:32:32.666Z,10.55
2018-10-09T00:35:05.184Z,12.35
2018-10-09T00:37:38.008Z,11.77
2018-10-09T00:40:10.988Z,11.97
2018-10-09T00:42:43.510Z,13.30
2018-10-09T00:45:16.014Z,13.57
2018-10-09T00:47:49.707Z,11.10
2018-10-09T00:50:22.498Z,9.27
2018-10-09T00:53:01.527Z,9.37
2018-10-09T00:55:33.933Z,10.13
2018-10-09T00:58:06.520Z,10.07
2018-10-09T01:00:38.886Z,6.70
2018-10-09T01:03:11.528Z,6.28
2018-10-09T01:05:44.056Z,7.77
2018-10-09T01:08:16.495Z,6.37
2018-10-09T01:10:48.984Z,7.13
2018-10-09T01:13:22.177Z,6.13
2018-10-09T01:15:54.967Z,6.23
2018-10-09T01:18:27.548Z,5.07
2018-10-09T01:21:00.308Z,6.23
2018-10-09T01:23:33.222Z,6.60
2018-10-09T01:26:07.043Z,6.60
2018-10-09T01:28:39.679Z,5.13
2018-10-09T01:31:12.224Z,5.27
2018-10-09T01:33:45.174Z,6.03
2018-10-09T01:36:17.619Z,5.00
2018-10-09T01:38:50.184Z,5.70
2018-10-09T01:41:27.568Z,5.60
2018-10-09T01:44:00.194Z,6.67
2018-10-09T01:46:32.621Z,6.30
2018-10-09T01:49:05.129Z,7.43
2018-10-09T01:51:38.206Z,7.00
2018-10-09T01:54:11.167Z,5.23
2018-10-09T01:56:43.661Z,5.67
2018-10-09T01:59:16.542Z,7.53
2018-10-09T02:01:49.013Z,9.17
2018-10-09T02:04:21.736Z,8.83
2018-10-09T02:06:54.151Z,9.00
2018-10-09T02:09:27.735Z,9.03
2018-10-09T02:12:00.253Z,7.93
2018-10-09T02:14:34.819Z,8.77
2018-10-09T02:17:07.492Z,8.77
2018-10-09T02:19:40.212Z,7.67
2018-10-09T02:22:18.617Z,7.20
2018-10-09T02:24:56.748Z,7.33
2018-10-09T02:27:29.163Z,6.97
2018-10-09T02:30:01.942Z,6.83
2018-10-09T02:32:34.452Z,7.28
2018-10-09T02:35:07.224Z,7.50
2018-10-09T02:37:39.745Z,8.90
2018-10-09T02:40:18.621Z,6.30
2018-10-09T02:42:51.139Z,5.20
2018-10-09T02:45:23.812Z,3.97
2018-10-09T02:47:56.417Z,4.50
2018-10-09T02:50:29.093Z,3.93
2018-10-09T02:53:01.725Z,3.77
2018-10-09T02:55:34.461Z,3.70
2018-10-09T02:58:06.940Z,3.63
2018-10-09T03:00:39.313Z,3.53
2018-10-09T03:03:13.465Z,4.87
2018-10-09T03:05:46.000Z,5.80
2018-10-09T03:08:18.888Z,5.37
2018-10-09T03:10:58.684Z,6.10
2018-10-09T03:13:32.187Z,5.90
2018-10-09T03:16:05.321Z,4.60
2018-10-09T03:18:37.777Z,5.00
2018-10-09T03:21:10.604Z,5.28
2018-10-09T03:23:43.304Z,8.00
2018-10-09T03:26:18.939Z,5.40
2018-10-09T03:28:52.290Z,7.80
2018-10-09T03:31:26.521Z,8.47
2018-10-09T03:33:59.422Z,7.33
2018-10-09T03:36:32.160Z,7.73
2018-10-09T03:39:06.046Z,7.50
2018-10-09T03:41:39.290Z,5.37
2018-10-09T03:44:17.648Z,5.20
2018-10-09T03:46:50.100Z,3.57
2018-10-09T03:49:22.681Z,2.67
2018-10-09T03:51:55.336Z,2.53
2018-10-09T03:54:27.632Z,2.50
2018-10-09T03:57:00.038Z,2.57
2018-10-09T03:59:32.731Z,2.17
2018-10-09T04:02:05.344Z,2.03
2018-10-09T04:04:44.018Z,2.00
2018-10-09T04:07:16.696Z,2.27
2018-10-09T04:09:49.245Z,2.00
2018-10-09T04:12:21.708Z,1.97
2018-10-09T04:14:54.320Z,2.00
2018-10-09T04:17:26.833Z,3.60
2018-10-09T04:19:59.287Z,4.93
2018-10-09T04:22:31.776Z,5.10
2018-10-09T04:25:04.496Z,4.80
2018-10-09T04:27:37.010Z,3.80
2018-10-09T04:30:09.417Z,3.60
2018-10-09T04:32:42.665Z,3.23
2018-10-09T04:35:15.053Z,3.10
2018-10-09T04:37:47.441Z,2.50
2018-10-09T04:40:19.805Z,2.10
2018-10-09T04:42:52.227Z,2.27
2018-10-09T04:45:25.096Z,2.10
2018-10-09T04:47:57.677Z,1.77
2018-10-09T04:50:30.628Z,3.50
2018-10-09T04:53:03.246Z,4.47
2018-10-09T04:55:35.830Z,4.83
2018-10-09T04:58:08.653Z,3.67
2018-10-09T05:00:48.417Z,2.63
2018-10-09T05:03:21.234Z,3.70
2018-10-09T05:05:53.746Z,6.00
2018-10-09T05:08:26.500Z,6.10
2018-10-09T05:10:58.928Z,5.20
2018-10-09T05:13:31.864Z,5.97
2018-10-09T05:16:04.571Z,3.80
2018-10-09T05:18:37.095Z,2.23
2018-10-09T05:21:09.503Z,2.20
2018-10-09T05:23:41.908Z,1.90
2018-10-09T05:27:43.305Z,1.90
2018-10-09T05:30:22.836Z,1.60
2018-10-09T05:33:02.273Z,1.60
2018-10-09T05:35:35.100Z,1.50
2018-10-09T05:38:08.428Z,1.67
2018-10-09T05:40:40.770Z,2.23
2018-10-09T05:43:13.299Z,2.20
2018-10-09T05:45:45.740Z,2.83
2018-10-09T05:48:18.317Z,2.87
2018-10-09T05:50:50.833Z,3.40
2018-10-09T05:53:23.159Z,3.93
2018-10-09T05:55:55.712Z,4.40
2018-10-09T05:58:28.257Z,5.70
2018-10-09T06:01:00.785Z,6.20
2018-10-09T06:03:33.562Z,4.07
2018-10-09T06:15:06.888Z,1.87
2018-10-09T06:17:39.542Z,1.90
2018-10-09T06:20:17.521Z,1.70
2018-10-09T06:22:50.000Z,1.53
2018-10-09T06:25:22.457Z,1.40
2018-10-09T06:27:55.182Z,1.70
2018-10-09T06:30:28.259Z,2.30
2018-10-09T06:33:04.761Z,5.97
2018-10-09T06:35:38.242Z,8.43
2018-10-09T06:38:12.082Z,8.83
2018-10-09T06:40:45.273Z,5.70
2018-10-09T06:43:18.003Z,5.23
2018-10-09T06:45:51.617Z,5.03
2018-10-09T06:48:24.335Z,5.00
2018-10-09T06:50:56.804Z,4.87
2018-10-09T06:53:29.505Z,3.30
2018-10-09T06:56:02.382Z,1.90
2018-10-09T06:58:34.951Z,1.80
2018-10-09T07:01:08.059Z,1.63
2018-10-09T07:03:40.711Z,1.30
2018-10-09T07:06:15.683Z,1.53
2018-10-09T07:08:49.019Z,1.40
2018-10-09T07:11:22.877Z,1.60
2018-10-09T07:13:55.534Z,1.60
2018-10-09T07:16:28.195Z,1.50
2018-10-09T07:19:06.097Z,1.52
2018-10-09T07:21:39.010Z,2.10
2018-10-09T07:24:12.729Z,2.00
2018-10-09T07:26:45.914Z,3.10
2018-10-09T07:29:18.617Z,4.33
2018-10-09T07:31:52.418Z,3.27
2018-10-09T07:34:25.267Z,3.80
2018-10-09T07:36:57.941Z,4.20
2018-10-09T07:39:30.377Z,4.23
2018-10-09T07:42:02.972Z,4.77
2018-10-09T07:44:41.377Z,4.90
2018-10-09T07:47:14.258Z,6.77
2018-10-09T07:49:47.215Z,8.37
2018-10-09T07:52:20.231Z,7.37
2018-10-09T07:54:52.724Z,7.10
2018-10-09T07:57:26.197Z,6.58
2018-10-09T07:59:59.543Z,4.87
2018-10-09T08:02:32.908Z,4.53
2018-10-09T08:05:05.677Z,4.17
2018-10-09T08:07:38.643Z,4.85
2018-10-09T08:10:11.372Z,4.10
2018-10-09T08:12:51.547Z,3.43
2018-10-09T08:15:24.028Z,4.20
2018-10-09T08:17:56.579Z,3.80
2018-10-09T08:20:29.319Z,4.20
2018-10-09T08:23:02.188Z,4.13
2018-10-09T08:25:36.015Z,4.40
2018-10-09T08:28:09.501Z,4.85
2018-10-09T08:35:38.530Z,5.62
2018-10-09T08:38:17.080Z,4.87
2018-10-09T08:40:50.037Z,4.90
2018-10-09T08:43:23.074Z,5.70
2018-10-09T08:45:56.425Z,6.13
2018-10-09T08:48:29.956Z,5.83
2018-10-09T08:51:03.041Z,5.70
2018-10-09T08:53:36.240Z,7.27
2018-10-09T08:56:09.435Z,6.43
2018-10-09T08:58:42.691Z,7.37
2018-10-09T09:01:15.362Z,9.47
2018-10-09T09:03:48.425Z,8.40
2018-10-09T09:06:23.028Z,8.60
2018-10-09T09:08:55.571Z,11.00
2018-10-09T09:11:28.415Z,10.77
2018-10-09T09:14:01.761Z,12.40
2018-10-09T09:16:34.267Z,9.67
2018-10-09T09:19:07.492Z,10.03
2018-10-09T09:21:41.027Z,10.63
2018-10-09T09:24:14.053Z,13.98
2018-10-09T09:26:48.065Z,13.53
2018-10-09T09:29:21.698Z,12.70
2018-10-09T09:31:56.008Z,12.23
2018-10-09T09:34:29.695Z,13.87
2018-10-09T09:37:03.570Z,10.70
2018-10-09T09:39:36.998Z,10.67
2018-10-09T09:42:10.400Z,11.20
2018-10-09T09:44:43.103Z,11.60
2018-10-09T09:47:15.954Z,12.17
2018-10-09T09:49:48.718Z,11.43
2018-10-09T09:52:26.979Z,10.87
2018-10-09T09:54:59.461Z,11.20
2018-10-09T09:57:32.659Z,10.63
2018-10-09T10:00:05.482Z,9.53
2018-10-09T10:02:38.664Z,10.03
2018-10-09T10:05:17.989Z,10.33
2018-10-09T10:07:51.315Z,11.13
2018-10-09T10:10:23.962Z,13.70
2018-10-09T10:12:56.640Z,14.17
2018-10-09T10:15:29.560Z,15.10
2018-10-09T10:18:02.802Z,15.90
2018-10-09T10:20:35.360Z,13.70
2018-10-09T10:23:08.384Z,13.00
2018-10-09T10:25:40.959Z,13.97
2018-10-09T10:28:13.772Z,11.87
2018-10-09T10:30:46.310Z,11.30
2018-10-09T10:33:19.139Z,8.83
2018-10-09T10:35:57.016Z,11.87
2018-10-09T10:38:29.846Z,8.27
2018-10-09T10:41:02.448Z,8.43
2018-10-09T10:43:35.240Z,7.67
2018-10-09T10:46:07.953Z,9.87
2018-10-09T10:49:13.004Z,8.30
2018-10-09T10:51:50.392Z,5.90
2018-10-09T10:54:24.054Z,5.70
2018-10-09T10:56:57.100Z,4.07
2018-10-09T10:59:29.741Z,3.60
2018-10-09T11:02:02.913Z,3.53
2018-10-09T11:04:42.044Z,4.30
2018-10-09T11:07:15.434Z,6.67
2018-10-09T11:09:49.196Z,7.90
2018-10-09T11:12:22.298Z,7.63
2018-10-09T11:14:55.114Z,7.53
2018-10-09T11:17:34.164Z,5.10
2018-10-09T11:20:07.001Z,3.27
2018-10-09T11:22:39.542Z,2.37
2018-10-09T11:25:12.410Z,2.60
2018-10-09T11:27:45.421Z,2.60
2018-10-09T11:30:18.555Z,3.80
2018-10-09T11:32:51.479Z,3.40
2018-10-09T11:35:24.833Z,2.60
2018-10-09T11:38:07.291Z,2.83
2018-10-09T11:40:41.137Z,2.90
2018-10-09T11:43:19.892Z,2.63
2018-10-09T11:46:01.776Z,2.70
2018-10-09T11:48:35.428Z,2.40
2018-10-09T11:51:09.254Z,3.13
2018-10-09T11:53:41.984Z,3.23
2018-10-09T11:56:14.631Z,3.15
2018-10-09T11:58:47.430Z,3.50
2018-10-09T12:01:21.155Z,3.27
2018-10-09T12:03:57.660Z,5.15
2018-10-09T12:06:31.515Z,4.30
2018-10-09T12:09:06.449Z,6.90
2018-10-09T12:11:44.441Z,5.50
2018-10-09T12:14:17.371Z,3.67
2018-10-09T12:16:49.949Z,3.07
2018-10-09T12:19:23.347Z,3.50
2018-10-09T12:21:56.163Z,2.30
2018-10-09T12:24:28.919Z,3.03
2018-10-09T12:27:01.705Z,2.70
2018-10-09T12:29:42.015Z,3.00
2018-10-09T12:32:17.278Z,2.80
2018-10-09T12:34:52.052Z,2.77
2018-10-09T12:37:27.912Z,5.43
2018-10-09T12:40:03.295Z,3.27
2018-10-09T12:42:39.823Z,3.00
2018-10-09T12:45:18.294Z,2.60
2018-10-09T12:47:58.653Z,2.63
2018-10-09T12:50:32.367Z,3.00
2018-10-09T12:53:05.384Z,2.55
2018-10-09T12:55:41.422Z,2.33
2018-10-09T12:58:14.448Z,2.50
2018-10-09T13:00:48.197Z,3.27
2018-10-09T13:03:24.664Z,2.83
2018-10-09T13:05:58.109Z,3.40
2018-10-09T13:08:30.660Z,3.73
2018-10-09T13:11:03.696Z,3.10
2018-10-09T13:13:45.217Z,3.13
2018-10-09T13:16:17.844Z,2.97
2018-10-09T13:18:50.552Z,3.43
2018-10-09T13:21:23.785Z,3.43
2018-10-09T13:24:01.784Z,4.90
2018-10-09T13:26:35.099Z,5.47
2018-10-09T13:29:07.999Z,6.93
2018-10-09T13:31:40.683Z,6.00
2018-10-09T13:34:15.066Z,6.13
2018-10-09T13:36:48.590Z,5.90
2018-10-09T13:39:30.058Z,4.63
2018-10-09T13:42:05.203Z,4.03
2018-10-09T13:44:43.427Z,5.60
2018-10-09T13:47:15.985Z,10.27
2018-10-09T13:50:04.974Z,8.67
2018-10-09T13:52:43.378Z,10.10
2018-10-09T13:55:16.293Z,8.50
2018-10-09T13:57:49.969Z,9.10
2018-10-09T14:00:22.593Z,11.00
2018-10-09T14:02:55.485Z,10.07
2018-10-09T14:05:29.346Z,9.67
2018-10-09T14:08:06.539Z,8.97
2018-10-09T14:10:44.885Z,7.28
2018-10-09T14:13:17.767Z,7.17
2018-10-09T14:15:53.001Z,6.95
2018-10-09T14:18:29.073Z,7.27
2018-10-09T14:21:02.809Z,5.87
2018-10-09T14:23:39.888Z,4.63
2018-10-09T14:26:15.109Z,4.65
2018-10-09T14:28:48.557Z,5.03
2018-10-09T14:31:24.846Z,6.00
2018-10-09T14:33:57.573Z,5.50
2018-10-09T14:36:30.938Z,5.13
2018-10-09T14:39:06.096Z,5.20
2018-10-09T14:41:46.435Z,3.37
2018-10-09T14:44:20.467Z,6.07
2018-10-09T14:46:54.479Z,6.30
2018-10-09T14:49:29.000Z,4.40
2018-10-09T14:52:02.697Z,3.90
2018-10-09T14:54:36.865Z,4.67
2018-10-09T14:57:10.904Z,5.93
2018-10-09T14:59:43.589Z,6.62
2018-10-09T15:02:17.009Z,6.20
2018-10-09T15:04:51.777Z,5.13
2018-10-09T15:07:24.576Z,5.17
2018-10-09T15:10:06.746Z,5.83
2018-10-09T15:12:42.781Z,4.80
2018-10-09T15:15:16.555Z,4.97
2018-10-09T15:17:50.446Z,4.50
2018-10-09T15:20:24.840Z,4.93
2018-10-09T15:23:10.603Z,3.60
2018-10-09T15:25:49.233Z,3.00
2018-10-09T15:28:30.888Z,3.90
2018-10-09T15:31:09.655Z,4.60
2018-10-09T15:33:53.558Z,3.10
2018-10-09T15:36:44.304Z,3.00
2018-10-09T15:42:07.943Z,3.30
2018-10-09T15:44:44.459Z,3.43
2018-10-09T15:47:27.305Z,3.33
2018-10-09T15:50:06.594Z,2.60
2018-10-09T15:52:44.566Z,2.83
2018-10-09T15:58:26.178Z,2.50
2018-10-09T16:03:47.935Z,2.17
2018-10-09T16:06:27.926Z,2.20
2018-10-09T16:09:09.659Z,2.90
2018-10-09T16:11:48.811Z,6.53
2018-10-09T16:14:38.823Z,6.00
2018-10-09T16:17:14.515Z,3.83
2018-10-09T16:19:51.091Z,2.93
2018-10-09T16:22:29.239Z,3.13
2018-10-09T16:27:59.127Z,2.20
2018-10-09T16:30:47.776Z,2.60
2018-10-09T16:33:43.467Z,1.80
2018-10-09T16:36:24.214Z,2.30
2018-10-09T16:39:06.615Z,3.00
2018-10-09T16:41:45.415Z,3.07
2018-10-09T16:44:28.595Z,3.40
2018-10-09T16:47:07.280Z,2.77
2018-10-09T16:52:34.106Z,2.30
2018-10-09T16:55:12.425Z,2.10
2018-10-09T17:00:43.028Z,3.10
2018-10-09T17:03:24.746Z,2.80
2018-10-09T17:08:43.297Z,5.97
2018-10-09T17:11:29.253Z,2.73
2018-10-09T17:14:14.738Z,4.07
2018-10-09T17:16:53.061Z,4.60
2018-10-09T17:19:36.956Z,3.10
2018-10-09T17:22:23.689Z,3.40
2018-10-09T17:25:06.749Z,4.60
2018-10-09T17:28:01.802Z,4.43
2018-10-09T17:30:49.635Z,5.30
2018-10-09T17:33:31.028Z,4.90
2018-10-09T17:36:12.981Z,4.10
2018-10-09T17:39:09.814Z,3.72
2018-10-09T17:42:03.077Z,5.80
2018-10-09T17:44:44.089Z,4.30
2018-10-09T17:47:23.991Z,4.50
2018-10-09T17:50:11.212Z,4.70
2018-10-09T17:53:01.442Z,5.83
2018-10-09T17:55:42.909Z,6.20
2018-10-09T17:58:21.516Z,5.37
2018-10-09T18:00:55.793Z,5.87
2018-10-09T18:03:29.953Z,7.03
2018-10-09T18:06:14.259Z,7.10
2018-10-09T18:08:54.024Z,18.70
2018-10-09T18:11:44.401Z,8.83
2018-10-09T18:14:32.722Z,7.23
2018-10-09T18:17:14.111Z,8.40
2018-10-09T18:19:56.684Z,5.17
2018-10-09T18:22:42.538Z,4.87
2018-10-09T18:25:28.627Z,5.10
2018-10-09T18:28:29.144Z,5.80
2018-10-09T18:31:17.573Z,5.40
2018-10-09T18:33:59.674Z,5.20
2018-10-09T18:36:35.088Z,5.87
2018-10-09T18:39:13.553Z,6.27
2018-10-09T18:41:48.113Z,6.93
2018-10-09T18:44:22.797Z,6.10
2018-10-09T18:46:58.429Z,6.23
2018-10-09T18:49:31.750Z,6.60
2018-10-09T18:52:06.016Z,7.43
2018-10-09T18:54:39.034Z,7.50
2018-10-09T18:57:11.856Z,7.83
2018-10-09T18:59:45.391Z,4.80
2018-10-09T19:02:24.523Z,3.40
2018-10-09T19:05:01.182Z,3.27
2018-10-09T19:07:47.619Z,3.03
2018-10-09T19:10:21.975Z,3.40
2018-10-09T19:13:08.815Z,3.67
2018-10-09T19:15:44.001Z,3.60
2018-10-09T19:18:31.376Z,3.37
2018-10-09T19:21:15.128Z,4.20
2018-10-09T19:24:10.484Z,3.37
2018-10-09T19:26:47.478Z,4.50
2018-10-09T19:29:46.126Z,4.00
2018-10-09T19:32:33.531Z,3.40
2018-10-09T19:35:16.841Z,4.07
2018-10-09T19:37:58.447Z,5.00
2018-10-09T19:40:51.776Z,4.63
2018-10-09T19:43:31.703Z,3.70
2018-10-09T19:46:09.459Z,3.50
2018-10-09T19:48:57.707Z,3.30
2018-10-09T19:51:38.099Z,3.37
2018-10-09T19:54:26.584Z,3.00
2018-10-09T19:57:07.576Z,3.70
2018-10-09T19:59:48.421Z,2.80
2018-10-09T20:05:39.933Z,2.60
2018-10-09T20:08:25.347Z,2.30
2018-10-09T20:11:10.852Z,3.25
2018-10-09T20:13:58.223Z,3.50
2018-10-09T20:16:43.480Z,3.83
2018-10-09T20:19:27.251Z,4.30
2018-10-09T20:22:02.427Z,3.83
2018-10-09T20:24:41.555Z,3.23
2018-10-09T20:30:15.997Z,2.90
2018-10-09T20:32:59.180Z,4.43
2018-10-09T20:35:36.427Z,4.50
2018-10-09T20:40:54.012Z,4.73
2018-10-09T20:43:30.850Z,4.10
2018-10-09T20:46:05.877Z,2.87
2018-10-09T20:48:40.876Z,3.53
2018-10-09T20:51:16.376Z,2.70
2018-10-09T20:53:51.625Z,2.03
2018-10-09T20:56:27.756Z,2.20
2018-10-09T20:59:07.669Z,1.70
2018-10-09T21:01:47.872Z,1.67
2018-10-09T21:04:26.201Z,1.83
2018-10-09T21:07:05.407Z,3.00
2018-10-09T21:09:48.141Z,2.50
2018-10-09T21:12:25.834Z,2.67
2018-10-09T21:15:01.035Z,2.20
2018-10-09T21:17:36.019Z,2.60
2018-10-09T21:20:08.453Z,2.73
2018-10-09T21:22:41.545Z,2.50
2018-10-09T21:25:14.024Z,2.80
2018-10-09T21:27:49.221Z,2.40
2018-10-09T21:30:27.104Z,2.47
2018-10-09T21:33:00.988Z,2.42
2018-10-09T21:35:34.407Z,3.20
2018-10-09T21:38:07.441Z,2.80
2018-10-09T21:40:40.141Z,3.20
2018-10-09T21:43:13.157Z,3.20
2018-10-09T21:45:45.904Z,3.87
2018-10-09T21:48:19.665Z,3.47
2018-10-09T21:50:53.567Z,4.00
2018-10-09T21:53:26.295Z,4.40
2018-10-09T21:55:58.824Z,5.20
2018-10-09T21:58:32.225Z,4.57
2018-10-09T22:01:08.863Z,2.60
2018-10-09T22:03:41.527Z,2.50
2018-10-09T22:06:14.192Z,2.97
2018-10-09T22:08:47.086Z,3.07
2018-10-09T22:11:19.747Z,2.73
2018-10-09T22:13:52.911Z,2.90
2018-10-09T22:16:25.392Z,2.20
2018-10-09T22:19:00.558Z,3.10
2018-10-09T22:21:34.977Z,2.43
2018-10-09T22:24:10.683Z,3.00
2018-10-09T22:26:48.865Z,3.00
2018-10-09T22:29:23.318Z,2.67
2018-10-09T22:32:01.374Z,2.30
2018-10-09T22:34:34.649Z,2.53
2018-10-09T22:37:07.626Z,3.20
2018-10-09T22:39:40.672Z,3.43
2018-10-09T22:42:13.342Z,3.60
2018-10-09T22:44:46.354Z,3.60
2018-10-09T22:47:19.163Z,4.47
2018-10-09T22:49:52.473Z,5.50
2018-10-09T22:52:30.249Z,5.70
2018-10-09T22:55:02.865Z,5.13
2018-10-09T22:57:41.882Z,7.30
2018-10-09T23:00:14.611Z,8.67
2018-10-09T23:02:51.561Z,8.50
2018-10-09T23:05:24.161Z,7.90
2018-10-09T23:07:56.889Z,5.10
2018-10-09T23:10:30.359Z,4.37
2018-10-09T23:13:02.905Z,5.00
2018-10-09T23:15:36.792Z,3.60
2018-10-09T23:18:09.278Z,4.20
2018-10-09T23:20:41.959Z,3.80
2018-10-09T23:23:15.427Z,4.10
2018-10-09T23:25:49.114Z,4.80
2018-10-09T23:28:22.187Z,3.23
2018-10-09T23:30:55.191Z,4.47
2018-10-09T23:33:27.936Z,3.83
2018-10-09T23:36:05.264Z,2.90
2018-10-09T23:38:39.408Z,2.80
2018-10-09T23:41:14.045Z,3.20
2018-10-09T23:43:51.654Z,2.80
2018-10-09T23:46:27.271Z,5.63
2018-10-09T23:48:59.940Z,2.73
2018-10-09T23:51:34.399Z,3.55
2018-10-09T23:54:06.764Z,3.87
2018-10-09T23:56:39.357Z,4.90
2018-10-09T23:59:11.870Z,7.30
